Cuaca Aktual Bandara Mali

Waktu Pengamatan : 2022-08-20 09:30:00 WITA


DAY-CLEAR
Cerah
Suhu Udara
30 °C
Titik Embun
20 °C

Tekanan Udara 1014 hPa
Jarak Pandang >=10 km

Timur
Arah Angin
dari Timur Laut
Kec. Angin
9.3 km/jam
METAR Terkini : METAR WATM 200100Z 11003KT CAVOK 29/20 Q1015|NOSIG=